Time;durP1;ratioP1;P1;durP2;ratioP2;P2;SDS_P1;SDS_P2;PMS_P1;PMS_P2;Temp;Humidity;BMP_temperature;BMP_pressure;BME280_temperature;BME280_humidity;BME280_pressure;Samples;Min_cycle;Max_cycle;Signal;HPM_P1;HPM_P2
2021/09/08 00:00:42;;;;;;;3.80;3.42;;;22.40;99.90;;;;;;5093996;28;20086;-90
2021/09/08 00:03:08;;;;;;;4.97;3.88;;;22.40;99.90;;;;;;5084745;28;20135;-90
2021/09/08 00:05:34;;;;;;;4.35;4.00;;;22.40;99.90;;;;;;5065648;28;20070;-90
2021/09/08 00:07:59;;;;;;;4.00;3.65;;;22.30;99.90;;;;;;5074480;28;20131;-91
2021/09/08 00:10:25;;;;;;;3.90;3.60;;;22.20;99.90;;;;;;5075099;28;20107;-90
2021/09/08 00:12:51;;;;;;;5.97;4.22;;;22.20;99.90;;;;;;5075522;28;20034;-90
2021/09/08 00:15:17;;;;;;;6.57;3.92;;;22.30;99.90;;;;;;5084862;28;20036;-89
2021/09/08 00:17:42;;;;;;;5.85;4.00;;;22.30;99.90;;;;;;5063485;28;20023;-90
2021/09/08 00:20:10;;;;;;;5.40;3.90;;;22.30;99.90;;;;;;5060816;28;20388;-90
2021/09/08 00:22:36;;;;;;;4.85;3.70;;;22.20;99.90;;;;;;5076059;28;20060;-90
2021/09/08 00:25:03;;;;;;;6.13;4.03;;;22.10;99.90;;;;;;5078969;28;20036;-90
2021/09/08 00:27:28;;;;;;;4.95;3.90;;;22.20;99.90;;;;;;5063009;28;20064;-90
2021/09/08 00:29:54;;;;;;;5.22;3.78;;;22.20;99.90;;;;;;5063633;28;20056;-90
2021/09/08 00:32:19;;;;;;;4.47;3.80;;;22.10;99.90;;;;;;5062671;28;20032;-91
2021/09/08 00:34:45;;;;;;;4.32;3.92;;;22.10;99.90;;;;;;5058178;28;20012;-90
2021/09/08 00:37:11;;;;;;;4.15;3.65;;;22.10;99.90;;;;;;5077445;28;20029;-90
2021/09/08 00:39:36;;;;;;;4.93;4.30;;;22.20;99.90;;;;;;5073364;28;20020;-90
2021/09/08 00:42:10;;;;;;;5.75;4.10;;;22.10;99.90;;;;;;5088374;28;20032;-91
2021/09/08 00:44:36;;;;;;;4.90;3.88;;;22.10;99.90;;;;;;5072527;28;20143;-90
2021/09/08 00:47:01;;;;;;;4.05;3.65;;;22.10;99.90;;;;;;5078859;28;20119;-90
2021/09/08 00:49:27;;;;;;;5.50;4.63;;;22.00;99.90;;;;;;5076031;28;20081;-90
2021/09/08 00:51:55;;;;;;;6.72;4.57;;;22.00;99.90;;;;;;5092954;28;20058;-90
2021/09/08 00:54:21;;;;;;;4.88;4.40;;;22.10;99.90;;;;;;5083378;28;20029;-90
2021/09/08 00:56:49;;;;;;;4.25;3.80;;;22.10;99.90;;;;;;5080846;28;20405;-90
2021/09/08 00:59:15;;;;;;;5.20;3.65;;;22.10;99.90;;;;;;5080240;28;20028;-90
2021/09/08 01:01:40;;;;;;;5.10;3.78;;;22.00;99.90;;;;;;5058070;28;20051;-90
2021/09/08 01:04:06;;;;;;;5.25;4.20;;;21.90;99.90;;;;;;5059156;28;20032;-91
2021/09/08 01:06:32;;;;;;;5.63;4.05;;;21.90;99.90;;;;;;5091334;28;20122;-91
2021/09/08 01:08:58;;;;;;;4.13;3.60;;;21.90;99.90;;;;;;5086516;28;20128;-89
2021/09/08 01:11:24;;;;;;;4.28;3.90;;;21.90;99.90;;;;;;5080249;28;20488;-90
2021/09/08 01:13:50;;;;;;;4.38;3.80;;;21.90;99.90;;;;;;5077075;28;20267;-90
2021/09/08 01:16:15;;;;;;;4.97;4.10;;;21.90;99.90;;;;;;5076338;28;20056;-91
2021/09/08 01:18:45;;;;;;;5.32;3.75;;;21.90;99.90;;;;;;5080213;28;20056;-90
2021/09/08 01:21:11;;;;;;;4.22;3.78;;;21.80;99.90;;;;;;5069411;28;20067;-90
2021/09/08 01:23:36;;;;;;;5.00;4.43;;;21.80;99.90;;;;;;5091570;28;20474;-90
2021/09/08 01:26:03;;;;;;;5.38;4.25;;;21.80;99.90;;;;;;5091958;28;20024;-90
2021/09/08 01:28:29;;;;;;;4.07;3.67;;;21.70;99.90;;;;;;5058096;28;20029;-90
2021/09/08 01:30:56;;;;;;;3.83;3.50;;;21.70;99.90;;;;;;5078785;28;20024;-91
2021/09/08 01:33:23;;;;;;;5.00;3.90;;;21.70;99.90;;;;;;5062120;28;20033;-91
2021/09/08 01:35:49;;;;;;;4.70;4.07;;;21.60;99.90;;;;;;5063051;28;20028;-90
2021/09/08 01:38:15;;;;;;;4.60;3.55;;;21.60;99.90;;;;;;5056365;28;20393;-90
2021/09/08 01:40:41;;;;;;;6.18;4.38;;;21.60;99.90;;;;;;5074125;28;20488;-91
2021/09/08 01:43:07;;;;;;;3.95;3.65;;;21.60;99.90;;;;;;5059674;28;20073;-90
2021/09/08 01:45:33;;;;;;;4.97;3.72;;;21.50;99.90;;;;;;5076082;28;20031;-90
2021/09/08 01:47:59;;;;;;;4.55;4.13;;;21.60;99.90;;;;;;5066378;28;20405;-90
2021/09/08 01:50:25;;;;;;;4.95;4.13;;;21.60;99.90;;;;;;5084549;28;20024;-90
2021/09/08 01:52:51;;;;;;;5.20;3.70;;;21.40;99.90;;;;;;5080319;28;20032;-90
2021/09/08 01:55:17;;;;;;;5.22;3.90;;;21.40;99.90;;;;;;5079485;28;20504;-90
2021/09/08 01:57:43;;;;;;;4.30;3.90;;;21.40;99.90;;;;;;5083273;28;20180;-90
2021/09/08 02:00:10;;;;;;;5.78;4.10;;;21.40;99.90;;;;;;5083336;28;20434;-90
2021/09/08 02:02:36;;;;;;;5.93;3.95;;;21.30;99.90;;;;;;5069003;28;20071;-90
2021/09/08 02:05:02;;;;;;;4.63;4.10;;;21.30;99.90;;;;;;5095583;28;20112;-90
2021/09/08 02:07:28;;;;;;;4.43;3.90;;;21.30;99.90;;;;;;5095203;28;20484;-90
2021/09/08 02:09:53;;;;;;;5.18;4.22;;;21.30;99.90;;;;;;5064397;28;20013;-90
2021/09/08 02:12:19;;;;;;;6.50;4.80;;;21.20;99.90;;;;;;5065706;28;20029;-90
2021/09/08 02:14:45;;;;;;;6.18;4.20;;;21.20;99.90;;;;;;5087092;28;20024;-90
2021/09/08 02:17:11;;;;;;;4.63;4.05;;;21.20;99.90;;;;;;5095530;28;20522;-90
2021/09/08 02:19:36;;;;;;;5.45;3.83;;;21.20;99.90;;;;;;5079279;28;20027;-90
2021/09/08 02:22:02;;;;;;;4.95;4.45;;;21.10;99.90;;;;;;5062419;28;20048;-90
2021/09/08 02:24:28;;;;;;;4.65;4.25;;;21.10;99.90;;;;;;5065353;28;20028;-90
2021/09/08 02:26:54;;;;;;;5.20;4.40;;;21.10;99.90;;;;;;5088565;28;20476;-90
2021/09/08 02:29:19;;;;;;;4.43;4.03;;;21.10;99.90;;;;;;5095073;28;20388;-90
2021/09/08 02:31:45;;;;;;;4.88;4.22;;;21.10;99.90;;;;;;5095292;28;20063;-90
2021/09/08 02:34:10;;;;;;;4.97;4.40;;;21.10;99.90;;;;;;5062167;28;20149;-90
2021/09/08 02:36:36;;;;;;;4.43;4.03;;;21.00;99.90;;;;;;5063899;28;20123;-90
2021/09/08 02:39:03;;;;;;;4.78;4.32;;;20.90;99.90;;;;;;5083654;28;20020;-90
2021/09/08 02:41:29;;;;;;;4.97;4.38;;;21.00;99.90;;;;;;5066569;28;20074;-90
2021/09/08 02:43:55;;;;;;;5.70;4.53;;;20.90;99.90;;;;;;5094246;28;20104;-90
2021/09/08 02:46:20;;;;;;;5.35;4.38;;;21.00;99.90;;;;;;5079281;28;20032;-90
2021/09/08 02:48:46;;;;;;;5.22;4.30;;;20.90;99.90;;;;;;5093718;28;20024;-90
2021/09/08 02:51:12;;;;;;;5.40;4.43;;;20.90;99.90;;;;;;5094331;28;20552;-90
2021/09/08 02:53:37;;;;;;;5.93;4.65;;;20.90;99.90;;;;;;5091267;28;20039;-90
2021/09/08 02:56:03;;;;;;;5.28;4.70;;;20.90;99.90;;;;;;5081188;28;20111;-89
2021/09/08 02:58:30;;;;;;;5.07;4.55;;;20.90;99.90;;;;;;5076098;28;20020;-90
2021/09/08 03:00:56;;;;;;;5.30;4.57;;;20.70;99.90;;;;;;5081659;28;20037;-90
2021/09/08 03:03:22;;;;;;;5.75;4.93;;;20.70;99.90;;;;;;5082489;28;20412;-89
2021/09/08 03:05:48;;;;;;;6.68;4.40;;;20.70;99.90;;;;;;5064841;28;20024;-90
2021/09/08 03:08:14;;;;;;;5.97;4.60;;;20.70;99.90;;;;;;5082237;28;20032;-90
2021/09/08 03:10:43;;;;;;;5.80;5.25;;;20.70;99.90;;;;;;5078161;28;20443;-90
2021/09/08 03:13:08;;;;;;;5.32;4.53;;;20.70;99.90;;;;;;5078772;28;20027;-91
2021/09/08 03:15:34;;;;;;;5.07;4.50;;;20.70;99.90;;;;;;5082849;28;20021;-89
2021/09/08 03:18:00;;;;;;;5.32;4.82;;;20.60;99.90;;;;;;5070314;28;20496;-90
2021/09/08 03:20:25;;;;;;;5.35;4.78;;;20.60;99.90;;;;;;5075965;28;20031;-89
2021/09/08 03:22:51;;;;;;;7.25;4.75;;;20.50;99.90;;;;;;5093854;28;20063;-90
2021/09/08 03:25:17;;;;;;;5.28;4.72;;;20.60;99.90;;;;;;5060407;28;20020;-90
2021/09/08 03:27:42;;;;;;;5.32;4.82;;;20.60;99.90;;;;;;5081381;28;20489;-90
2021/09/08 03:30:08;;;;;;;5.78;4.75;;;20.50;99.90;;;;;;5082207;28;20039;-90
2021/09/08 03:32:34;;;;;;;6.28;5.25;;;20.50;99.90;;;;;;5060903;28;20027;-90
2021/09/08 03:35:00;;;;;;;5.28;4.70;;;20.40;99.90;;;;;;5075338;28;20024;-90
2021/09/08 03:37:25;;;;;;;5.10;4.70;;;20.40;99.90;;;;;;5093921;28;20484;-90
2021/09/08 03:39:52;;;;;;;6.40;5.43;;;20.40;99.90;;;;;;5080691;28;20376;-90
2021/09/08 03:42:18;;;;;;;7.45;4.93;;;20.40;99.90;;;;;;5058131;28;20099;-90
2021/09/08 03:44:44;;;;;;;7.80;5.07;;;20.30;99.90;;;;;;5063883;28;20029;-90
2021/09/08 03:47:10;;;;;;;6.65;4.85;;;20.30;99.90;;;;;;5080868;28;20035;-90
2021/09/08 03:49:36;;;;;;;6.32;5.72;;;20.30;99.90;;;;;;5075305;28;20036;-90
2021/09/08 03:52:01;;;;;;;7.75;5.13;;;20.30;99.90;;;;;;5093916;28;20294;-90
2021/09/08 03:54:27;;;;;;;5.78;5.18;;;20.30;99.90;;;;;;5083692;28;20400;-91
2021/09/08 03:56:53;;;;;;;5.88;5.28;;;20.30;99.90;;;;;;5081285;28;20082;-90
2021/09/08 03:59:21;;;;;;;5.50;5.00;;;20.30;99.90;;;;;;5082169;28;20052;-90
2021/09/08 04:01:47;;;;;;;8.32;5.45;;;20.30;99.90;;;;;;5093413;28;20028;-90
2021/09/08 04:04:13;;;;;;;6.45;5.50;;;20.20;99.90;;;;;;5077525;28;20040;-90
2021/09/08 04:06:38;;;;;;;6.70;5.53;;;20.20;99.90;;;;;;5062544;28;20053;-90
2021/09/08 04:09:04;;;;;;;6.50;5.13;;;20.20;99.90;;;;;;5081498;28;20397;-90
2021/09/08 04:11:29;;;;;;;5.93;5.32;;;20.20;99.90;;;;;;5080942;28;20693;-89
2021/09/08 04:13:55;;;;;;;6.38;5.60;;;20.20;99.90;;;;;;5078596;28;20055;-89
2021/09/08 04:16:21;;;;;;;5.72;5.10;;;20.00;99.90;;;;;;5074914;28;20047;-90
2021/09/08 04:18:46;;;;;;;7.07;5.30;;;20.10;99.90;;;;;;5080424;28;20025;-89
2021/09/08 04:21:12;;;;;;;7.15;5.20;;;20.10;99.90;;;;;;5081583;28;20039;-90
2021/09/08 04:23:38;;;;;;;6.22;5.55;;;20.10;99.90;;;;;;5083802;28;20086;-89
2021/09/08 04:26:03;;;;;;;6.22;5.63;;;20.10;99.90;;;;;;5092437;28;20032;-89
2021/09/08 04:28:29;;;;;;;5.65;5.10;;;20.00;99.90;;;;;;5076563;28;20483;-89
2021/09/08 04:30:54;;;;;;;8.18;5.30;;;20.00;99.90;;;;;;5077253;28;20032;-89
2021/09/08 04:33:20;;;;;;;6.35;5.13;;;20.10;99.90;;;;;;5081105;28;20078;-89
2021/09/08 04:35:46;;;;;;;7.47;5.57;;;20.00;99.90;;;;;;5081192;28;20028;-90
2021/09/08 04:38:11;;;;;;;7.20;5.90;;;19.90;99.90;;;;;;5080104;28;20472;-89
2021/09/08 04:40:37;;;;;;;7.57;6.13;;;19.90;99.90;;;;;;5073913;28;20028;-89
2021/09/08 04:43:03;;;;;;;7.00;5.82;;;19.80;99.90;;;;;;5093223;28;20047;-89
2021/09/08 04:45:28;;;;;;;6.60;5.70;;;20.00;99.90;;;;;;5082464;28;20048;-90
2021/09/08 04:47:54;;;;;;;8.50;5.43;;;19.90;99.90;;;;;;5085712;28;20039;-90
2021/09/08 04:50:20;;;;;;;6.03;5.43;;;20.00;99.90;;;;;;5092272;28;20069;-90
2021/09/08 04:52:45;;;;;;;7.05;6.13;;;19.90;99.90;;;;;;5076562;28;20032;-90
2021/09/08 04:55:11;;;;;;;9.55;5.80;;;19.90;99.90;;;;;;5093144;28;20020;-89
2021/09/08 04:57:37;;;;;;;7.10;5.63;;;19.90;99.90;;;;;;5092021;28;20499;-90
2021/09/08 05:00:05;;;;;;;6.70;5.78;;;19.90;99.90;;;;;;5085602;28;20024;-89
2021/09/08 05:02:30;;;;;;;7.88;6.10;;;19.90;99.90;;;;;;5080721;28;20489;-90
2021/09/08 05:04:56;;;;;;;7.05;6.05;;;19.80;99.90;;;;;;5077666;28;20027;-90
2021/09/08 05:07:21;;;;;;;8.88;5.80;;;19.90;99.90;;;;;;5075987;28;20054;-90
2021/09/08 05:09:47;;;;;;;8.23;5.88;;;19.90;99.90;;;;;;5073419;28;20107;-90
2021/09/08 05:12:13;;;;;;;8.90;5.97;;;19.90;99.90;;;;;;5084033;28;20118;-90
2021/09/08 05:14:38;;;;;;;7.45;6.50;;;19.90;99.90;;;;;;5083164;28;20054;-90
2021/09/08 05:17:07;;;;;;;7.80;5.88;;;19.80;99.90;;;;;;5091794;28;20012;-89
2021/09/08 05:19:34;;;;;;;10.52;6.32;;;19.90;99.90;;;;;;5091691;28;20036;-89
2021/09/08 05:21:59;;;;;;;7.25;6.18;;;19.90;99.90;;;;;;5077729;28;20513;-89
2021/09/08 05:24:25;;;;;;;8.68;6.03;;;20.00;99.90;;;;;;5080997;28;20107;-90
2021/09/08 05:26:51;;;;;;;6.72;5.88;;;20.00;99.90;;;;;;5080104;28;20032;-89
2021/09/08 05:29:17;;;;;;;11.93;5.78;;;19.90;99.90;;;;;;5079966;28;20031;-89
2021/09/08 05:31:43;;;;;;;11.43;7.00;;;19.90;99.90;;;;;;5075312;28;20464;-89
2021/09/08 05:34:09;;;;;;;7.40;6.40;;;20.00;99.90;;;;;;5077605;28;20029;-89
2021/09/08 05:36:35;;;;;;;8.80;6.25;;;20.00;99.90;;;;;;5080690;28;20128;-89
2021/09/08 05:39:01;;;;;;;7.65;6.13;;;20.00;99.90;;;;;;5068353;28;20082;-89
2021/09/08 05:41:28;;;;;;;7.28;6.47;;;20.00;99.90;;;;;;5091766;28;20032;-90
2021/09/08 05:43:54;;;;;;;8.73;6.63;;;20.10;99.90;;;;;;5091811;28;20114;-89
2021/09/08 05:46:20;;;;;;;8.63;6.55;;;20.10;99.90;;;;;;5092220;28;20553;-90
2021/09/08 05:48:45;;;;;;;7.35;6.65;;;20.10;99.90;;;;;;5079633;28;20033;-89
2021/09/08 05:51:11;;;;;;;8.02;6.25;;;20.20;99.90;;;;;;5056093;28;20389;-90
2021/09/08 05:53:36;;;;;;;8.00;6.38;;;20.20;99.90;;;;;;5079810;28;20028;-89
2021/09/08 05:56:02;;;;;;;7.22;6.03;;;20.20;99.90;;;;;;5078225;28;20028;-90
2021/09/08 05:58:28;;;;;;;9.77;6.57;;;20.20;99.90;;;;;;5091635;28;20021;-89
2021/09/08 06:00:54;;;;;;;14.20;7.28;;;20.20;99.90;;;;;;5078601;28;20102;-90
2021/09/08 06:03:19;;;;;;;31.52;7.78;;;20.20;99.90;;;;;;5088231;28;20044;-90
2021/09/08 06:05:45;;;;;;;16.58;7.15;;;20.30;99.90;;;;;;5070467;28;20024;-89
2021/09/08 06:08:11;;;;;;;35.55;8.80;;;20.50;99.90;;;;;;5091055;28;20062;-89
2021/09/08 06:10:36;;;;;;;25.00;7.45;;;20.50;99.90;;;;;;5057590;28;20472;-90
2021/09/08 06:13:02;;;;;;;11.50;6.18;;;20.50;99.90;;;;;;5060215;28;20036;-90
2021/09/08 06:15:28;;;;;;;13.23;6.40;;;20.60;99.90;;;;;;5089776;28;20043;-90
2021/09/08 06:17:53;;;;;;;8.75;6.13;;;20.60;99.90;;;;;;5062692;28;20400;-90
2021/09/08 06:20:19;;;;;;;13.38;7.15;;;20.70;99.90;;;;;;5080072;28;20447;-89
2021/09/08 06:22:45;;;;;;;15.50;7.68;;;20.70;99.90;;;;;;5091043;28;20048;-90
2021/09/08 06:25:11;;;;;;;25.23;8.07;;;20.80;99.90;;;;;;5076606;28;20089;-89
2021/09/08 06:27:37;;;;;;;17.85;7.90;;;20.80;99.90;;;;;;5055913;28;20033;-90
2021/09/08 06:30:04;;;;;;;20.83;8.07;;;20.80;99.90;;;;;;5081936;28;20028;-90
2021/09/08 06:32:30;;;;;;;7.13;6.38;;;20.90;99.90;;;;;;5083286;28;20028;-90
2021/09/08 06:34:56;;;;;;;7.90;6.50;;;20.90;99.90;;;;;;5080748;28;20433;-89
2021/09/08 06:37:22;;;;;;;8.00;6.65;;;21.00;99.90;;;;;;5076401;28;20035;-90
2021/09/08 06:39:47;;;;;;;24.25;8.23;;;21.00;99.90;;;;;;5094530;28;20020;-90
2021/09/08 06:42:13;;;;;;;40.28;8.90;;;21.10;99.90;;;;;;5086846;28;20050;-89
2021/09/08 06:44:39;;;;;;;32.05;8.15;;;21.10;99.90;;;;;;5064633;28;20040;-90
2021/09/08 06:47:05;;;;;;;32.00;8.18;;;21.20;99.90;;;;;;5062381;28;20032;-90
2021/09/08 06:49:30;;;;;;;12.43;6.47;;;21.40;99.90;;;;;;5078228;28;20032;-89
2021/09/08 06:51:56;;;;;;;22.60;8.52;;;21.40;99.90;;;;;;5081473;28;20020;-89
2021/09/08 06:54:21;;;;;;;17.42;7.43;;;21.50;99.90;;;;;;5083068;28;20040;-89
2021/09/08 06:56:47;;;;;;;22.35;7.10;;;21.50;99.90;;;;;;5087189;28;20552;-90
2021/09/08 06:59:13;;;;;;;12.35;6.38;;;21.60;99.90;;;;;;5095014;28;20051;-89
2021/09/08 07:01:38;;;;;;;6.95;6.25;;;21.70;99.90;;;;;;5077958;28;20539;-90
2021/09/08 07:04:04;;;;;;;10.48;7.25;;;21.70;99.90;;;;;;5079928;28;20067;-89
2021/09/08 07:06:29;;;;;;;33.60;7.78;;;21.70;99.90;;;;;;5082370;28;20432;-90
2021/09/08 07:08:55;;;;;;;20.52;7.07;;;21.80;99.90;;;;;;5083145;28;20489;-90
2021/09/08 07:11:21;;;;;;;9.52;6.30;;;21.90;99.90;;;;;;5082454;28;20024;-90
2021/09/08 07:13:48;;;;;;;9.25;5.75;;;21.90;99.90;;;;;;5078055;28;20032;-90
2021/09/08 07:16:14;;;;;;;20.20;6.60;;;22.00;99.90;;;;;;5079248;28;20477;-89
2021/09/08 07:18:40;;;;;;;24.77;6.57;;;22.00;99.90;;;;;;5093773;28;20039;-89
2021/09/08 07:21:05;;;;;;;16.05;7.35;;;22.00;99.90;;;;;;5068888;28;20400;-89
2021/09/08 07:23:32;;;;;;;11.82;6.65;;;22.10;99.90;;;;;;5082387;28;20409;-90
2021/09/08 07:25:57;;;;;;;7.25;6.45;;;22.20;99.90;;;;;;5079557;28;20361;-89
2021/09/08 07:28:23;;;;;;;14.52;6.82;;;22.20;99.90;;;;;;5077937;28;20029;-89
2021/09/08 07:30:53;;;;;;;28.75;7.95;;;22.30;99.90;;;;;;5081485;28;20020;-90
2021/09/08 07:33:24;;;;;;;20.95;8.07;;;22.50;99.90;;;;;;5082381;28;20108;-89
2021/09/08 07:35:50;;;;;;;10.13;7.10;;;22.40;99.90;;;;;;5063721;28;20025;-90
2021/09/08 07:38:18;;;;;;;7.93;6.28;;;22.60;99.90;;;;;;5082140;28;20435;-89
2021/09/08 07:40:44;;;;;;;17.92;6.55;;;22.60;99.90;;;;;;5077142;28;20035;-90
2021/09/08 07:43:10;;;;;;;31.00;7.78;;;22.60;99.90;;;;;;5078806;28;20067;-90
2021/09/08 07:45:35;;;;;;;9.93;6.22;;;22.60;99.90;;;;;;5058197;28;20055;-89
2021/09/08 07:48:01;;;;;;;8.98;6.30;;;22.80;99.90;;;;;;5081743;28;20036;-90
2021/09/08 07:50:27;;;;;;;7.88;5.93;;;22.90;99.90;;;;;;5064485;28;20027;-90
2021/09/08 07:52:52;;;;;;;7.07;6.10;;;22.90;99.90;;;;;;5093371;28;20059;-89
2021/09/08 07:55:18;;;;;;;18.23;7.05;;;23.10;99.90;;;;;;5075941;28;20024;-90
2021/09/08 07:57:44;;;;;;;27.73;7.93;;;23.20;99.90;;;;;;5092184;28;20035;-90
2021/09/08 08:00:11;;;;;;;15.43;6.90;;;23.20;99.90;;;;;;5093151;28;20061;-90
2021/09/08 08:02:49;;;;;;;29.63;8.40;;;23.20;99.90;;;;;;5072233;28;20116;-90
2021/09/08 08:05:15;;;;;;;14.70;9.23;;;23.30;99.90;;;;;;5081507;28;20070;-89
2021/09/08 08:07:43;;;;;;;7.75;5.63;;;23.50;99.90;;;;;;5058509;28;20027;-90
2021/09/08 08:10:09;;;;;;;20.60;7.00;;;23.70;99.90;;;;;;5060121;28;20032;-90
2021/09/08 08:12:35;;;;;;;20.30;6.78;;;23.70;99.90;;;;;;5092869;28;20028;-90
2021/09/08 08:15:00;;;;;;;7.95;5.80;;;23.70;99.90;;;;;;5063363;28;20619;-89
2021/09/08 08:17:26;;;;;;;7.45;5.63;;;23.70;99.90;;;;;;5081161;28;20492;-90
2021/09/08 08:19:53;;;;;;;6.20;5.60;;;23.80;99.90;;;;;;5059770;28;20042;-90
2021/09/08 08:22:18;;;;;;;7.25;5.97;;;23.80;99.90;;;;;;5054857;28;20127;-90
2021/09/08 08:24:44;;;;;;;6.43;5.78;;;24.00;99.90;;;;;;5085118;28;20573;-90
2021/09/08 08:27:11;;;;;;;8.23;5.88;;;23.90;99.90;;;;;;5071266;28;20025;-90
2021/09/08 08:29:37;;;;;;;8.73;5.68;;;24.00;99.90;;;;;;5069643;28;20032;-90
2021/09/08 08:32:03;;;;;;;7.65;5.75;;;24.00;99.90;;;;;;5058757;28;20062;-90
2021/09/08 08:34:28;;;;;;;6.30;5.70;;;24.10;99.90;;;;;;5073139;28;20447;-90
2021/09/08 08:36:54;;;;;;;8.35;5.72;;;24.20;99.90;;;;;;5059715;28;20025;-90
2021/09/08 08:39:20;;;;;;;9.38;5.47;;;24.60;99.90;;;;;;5060770;28;20087;-90
2021/09/08 08:41:46;;;;;;;6.70;5.32;;;24.40;99.90;;;;;;5060969;28;20493;-90
2021/09/08 08:44:12;;;;;;;7.68;5.60;;;24.70;99.90;;;;;;5059089;28;20508;-89
2021/09/08 08:46:38;;;;;;;7.45;5.85;;;24.90;99.90;;;;;;5070699;28;20017;-90
2021/09/08 08:49:04;;;;;;;5.90;5.32;;;24.80;99.90;;;;;;5057953;28;20033;-90
2021/09/08 08:51:31;;;;;;;6.07;5.45;;;24.80;99.90;;;;;;5060500;28;20017;-90
2021/09/08 08:53:57;;;;;;;6.22;5.28;;;24.80;99.90;;;;;;5065667;28;20055;-90
2021/09/08 08:56:24;;;;;;;8.50;6.00;;;25.00;99.90;;;;;;5069542;28;20075;-90
2021/09/08 08:58:51;;;;;;;19.80;7.07;;;25.10;99.90;;;;;;5070067;28;20033;-90
2021/09/08 09:01:26;;;;;;;11.73;6.22;;;25.30;99.90;;;;;;5054495;28;20025;-90
2021/09/08 09:04:08;;;;;;;6.30;5.65;;;25.20;99.90;;;;;;5072057;28;20044;-90
2021/09/08 09:06:38;;;;;;;7.07;5.65;;;25.20;99.90;;;;;;5071513;28;20025;-89
2021/09/08 09:09:12;;;;;;;6.80;5.90;;;25.20;99.90;;;;;;5071645;28;20033;-90
2021/09/08 09:11:40;;;;;;;7.57;5.70;;;25.20;99.90;;;;;;5070555;28;20021;-90
2021/09/08 09:14:08;;;;;;;11.77;6.20;;;25.30;99.90;;;;;;5072800;28;20055;-90
2021/09/08 09:16:39;;;;;;;24.55;7.47;;;25.60;99.90;;;;;;5055798;28;20029;-90
2021/09/08 09:19:05;;;;;;;6.03;5.25;;;26.00;99.90;;;;;;5057183;28;20307;-90
2021/09/08 09:21:32;;;;;;;6.63;5.78;;;25.80;99.90;;;;;;5061921;28;20040;-90
2021/09/08 09:24:00;;;;;;;5.72;5.22;;;25.70;99.90;;;;;;5080911;28;20031;-90
2021/09/08 09:26:41;;;;;;;6.80;5.10;;;25.80;99.90;;;;;;5080839;28;20032;-91
2021/09/08 09:29:19;;;;;;;6.18;5.50;;;26.30;99.90;;;;;;5061085;28;20031;-90
2021/09/08 09:31:53;;;;;;;9.20;5.55;;;26.60;99.90;;;;;;5075635;28;20024;-90
2021/09/08 09:34:20;;;;;;;7.07;5.93;;;27.00;99.90;;;;;;5068790;28;20481;-91
2021/09/08 09:36:50;;;;;;;6.10;4.90;;;27.50;99.90;;;;;;5091760;28;20387;-90
2021/09/08 09:39:16;;;;;;;5.90;4.72;;;28.10;99.90;;;;;;5091437;28;20032;-91
2021/09/08 09:41:41;;;;;;;4.60;4.20;;;29.60;99.90;;;;;;5068480;28;20028;-90
2021/09/08 09:44:09;;;;;;;5.00;4.28;;;33.00;93.50;;;;;;5091675;28;20093;-90
2021/09/08 09:46:38;;;;;;;6.20;5.10;;;34.10;92.60;;;;;;5091401;28;20104;-91
2021/09/08 09:49:04;;;;;;;8.60;6.50;;;34.50;92.00;;;;;;5077403;28;20107;-91
2021/09/08 09:51:30;;;;;;;6.82;5.53;;;36.40;78.60;;;;;;5062269;28;20137;-91
2021/09/08 09:53:56;;;;;;;9.02;5.22;;;37.00;73.90;;;;;;5085936;28;20081;-91
2021/09/08 09:56:22;;;;;;;7.60;5.43;;;37.80;74.70;;;;;;5091479;28;20476;-91
2021/09/08 09:58:48;;;;;;;8.75;5.57;;;39.40;67.40;;;;;;5076102;28;20128;-92
2021/09/08 10:01:14;;;;;;;8.85;4.57;;;40.50;60.00;;;;;;5092665;28;20031;-92
2021/09/08 10:03:40;;;;;;;4.78;4.38;;;39.20;61.30;;;;;;5062949;28;20106;-92
2021/09/08 10:06:05;;;;;;;5.30;4.80;;;37.50;69.90;;;;;;5090542;28;20024;-92
2021/09/08 10:08:34;;;;;;;4.57;4.18;;;38.20;64.60;;;;;;5075312;28;20481;-93
2021/09/08 10:11:05;;;;;;;6.22;4.22;;;38.30;66.30;;;;;;5096369;28;20081;-92
2021/09/08 10:13:37;;;;;;;4.80;4.28;;;38.80;63.10;;;;;;5078697;28;20047;-93
2021/09/08 10:16:04;;;;;;;7.65;4.18;;;38.60;64.60;;;;;;5062613;28;20107;-93
2021/09/08 10:18:34;;;;;;;4.90;4.40;;;40.90;55.40;;;;;;5084613;28;20039;-93
2021/09/08 10:21:04;;;;;;;4.45;4.05;;;40.00;58.60;;;;;;5090238;28;20385;-93
2021/09/08 10:23:37;;;;;;;5.30;4.32;;;40.20;55.90;;;;;;5095547;28;20060;-93
2021/09/08 10:26:12;;;;;;;4.50;4.13;;;38.60;57.50;;;;;;5095392;28;20059;-93
2021/09/08 10:28:41;;;;;;;5.90;4.20;;;38.60;60.20;;;;;;5076955;28;20059;-93
2021/09/08 10:31:08;;;;;;;4.20;3.90;;;37.90;59.10;;;;;;5096165;28;20430;-92
2021/09/08 10:33:37;;;;;;;3.95;3.65;;;38.40;57.70;;;;;;5084997;28;20081;-93
2021/09/08 10:36:03;;;;;;;4.10;3.70;;;40.30;53.60;;;;;;5070874;28;20073;-93
2021/09/08 10:38:31;;;;;;;6.88;4.22;;;37.40;58.00;;;;;;5075598;28;20020;-93
2021/09/08 10:40:57;;;;;;;4.57;4.18;;;38.70;57.10;;;;;;5080992;28;20519;-92
2021/09/08 10:43:34;;;;;;;4.53;3.90;;;38.90;51.50;;;;;;5077445;28;20069;-93
2021/09/08 10:46:02;;;;;;;5.35;4.22;;;37.60;58.40;;;;;;5063746;28;20020;-93
2021/09/08 10:48:38;;;;;;;5.35;3.83;;;38.20;58.60;;;;;;5092634;28;20181;-93
2021/09/08 10:51:25;;;;;;;4.90;4.43;;;40.20;52.40;;;;;;5095204;28;20024;-92
2021/09/08 10:54:05;;;;;;;4.38;3.97;;;40.80;50.10;;;;;;5073753;28;20087;-94
2021/09/08 10:56:42;;;;;;;5.93;4.10;;;40.10;51.00;;;;;;5083833;28;20035;-93
2021/09/08 10:59:08;;;;;;;5.00;4.50;;;39.50;53.30;;;;;;5082334;28;20495;-93
2021/09/08 11:01:34;;;;;;;5.75;4.43;;;41.40;47.00;;;;;;5078808;28;20028;-93
2021/09/08 11:04:01;;;;;;;4.55;4.15;;;39.90;48.80;;;;;;5081046;28;20021;-92
2021/09/08 11:06:41;;;;;;;6.43;4.30;;;38.60;53.00;;;;;;5083115;28;20101;-92
2021/09/08 11:09:09;;;;;;;4.53;4.13;;;41.50;46.40;;;;;;5090773;28;20036;-93
2021/09/08 11:11:58;;;;;;;4.68;4.25;;;42.90;40.20;;;;;;5074354;28;20047;-92
2021/09/08 11:14:47;;;;;;;5.60;4.15;;;40.80;46.70;;;;;;5083431;28;20024;-93
2021/09/08 11:17:18;;;;;;;4.32;4.03;;;41.60;45.30;;;;;;5063553;28;20099;-93
2021/09/08 11:19:55;;;;;;;7.05;4.28;;;41.70;41.60;;;;;;5060234;28;20063;-93
2021/09/08 11:22:22;;;;;;;6.20;4.40;;;40.60;44.20;;;;;;5073113;28;20135;-94
2021/09/08 11:25:11;;;;;;;5.20;4.28;;;38.80;49.70;;;;;;5064664;28;20493;-93
2021/09/08 11:27:39;;;;;;;6.00;4.40;;;37.80;50.30;;;;;;5069667;28;20069;-93
2021/09/08 11:30:10;;;;;;;5.82;4.00;;;38.40;49.60;;;;;;5071457;28;20020;-93
2021/09/08 11:32:56;;;;;;;5.75;4.47;;;39.70;47.80;;;;;;5091406;28;20094;-93
2021/09/08 11:35:55;;;;;;;5.00;4.10;;;40.00;45.30;;;;;;5065062;28;20024;-93
2021/09/08 11:38:22;;;;;;;5.13;4.30;;;42.00;43.10;;;;;;5094537;28;20074;-94
2021/09/08 11:40:59;;;;;;;6.80;4.45;;;41.40;41.50;;;;;;5094120;28;20020;-93
2021/09/08 11:43:42;;;;;;;4.90;4.50;;;42.30;39.60;;;;;;5091214;28;20044;-93
2021/09/08 11:46:22;;;;;;;6.45;4.43;;;41.10;42.50;;;;;;5075916;28;20024;-93
2021/09/08 11:48:53;;;;;;;5.13;4.63;;;41.80;39.70;;;;;;5064691;28;20032;-93
2021/09/08 11:51:21;;;;;;;4.38;3.97;;;42.10;38.90;;;;;;5082712;28;20070;-93
2021/09/08 11:53:49;;;;;;;5.82;4.18;;;41.10;39.00;;;;;;5086141;28;20032;-93
2021/09/08 11:56:17;;;;;;;4.20;3.80;;;41.40;40.20;;;;;;5093927;28;20547;-93
2021/09/08 11:58:48;;;;;;;4.93;4.25;;;42.50;36.10;;;;;;5059649;28;20036;-94
2021/09/08 12:01:13;;;;;;;3.97;3.67;;;42.10;37.50;;;;;;5072614;28;20107;-94
2021/09/08 12:03:40;;;;;;;5.50;4.07;;;41.30;36.50;;;;;;5068923;28;20130;-93
2021/09/08 12:06:10;;;;;;;5.57;4.10;;;41.30;39.20;;;;;;5093573;28;20032;-94
2021/09/08 12:08:37;;;;;;;5.07;4.00;;;41.90;37.70;;;;;;5075838;28;20547;-94
2021/09/08 12:11:04;;;;;;;5.32;3.78;;;41.00;36.90;;;;;;5093821;28;20020;-93
2021/09/08 12:13:33;;;;;;;4.35;3.95;;;42.30;37.00;;;;;;5093731;28;20027;-93
2021/09/08 12:16:00;;;;;;;4.28;3.90;;;41.10;38.30;;;;;;5078090;28;20032;-93
2021/09/08 12:18:27;;;;;;;4.43;3.90;;;40.60;40.70;;;;;;5082364;28;20163;-93
2021/09/08 12:20:53;;;;;;;5.60;4.03;;;41.80;37.00;;;;;;5081942;28;20037;-94
2021/09/08 12:23:30;;;;;;;5.82;3.78;;;41.80;33.40;;;;;;5063747;28;20048;-94
2021/09/08 12:26:08;;;;;;;6.68;3.95;;;41.80;37.20;;;;;;5079285;28;20028;-94
2021/09/08 12:28:35;;;;;;;6.50;4.13;;;43.40;34.20;;;;;;5058538;28;20029;-94
2021/09/08 12:31:18;;;;;;;4.40;4.00;;;42.20;35.40;;;;;;5094237;28;20027;-94
2021/09/08 12:33:58;;;;;;;4.82;4.22;;;42.50;33.60;;;;;;5094076;28;20100;-93
2021/09/08 12:36:24;;;;;;;4.40;4.00;;;42.30;33.80;;;;;;5093499;28;20036;-94
2021/09/08 12:38:51;;;;;;;4.35;3.95;;;41.70;35.90;;;;;;5074635;28;20024;-94
2021/09/08 12:41:27;;;;;;;4.57;4.00;;;42.30;35.00;;;;;;5074955;28;20027;-94
2021/09/08 12:43:52;;;;;;;5.35;4.03;;;42.00;34.70;;;;;;5077674;28;20524;-94
2021/09/08 12:46:36;;;;;;;7.40;4.20;;;40.60;36.70;;;;;;5075480;28;20028;-93